Time;durP1;ratioP1;P1;durP2;ratioP2;P2;SDS_P1;SDS_P2;PMS_P1;PMS_P2;Temp;Humidity;BMP_temperature;BMP_pressure;BME280_temperature;BME280_humidity;BME280_pressure;Samples;Min_cycle;Max_cycle;Signal;HPM_P1;HPM_P2
2021/09/20 00:00:40;;;;;;;2.50;1.33;;;15.30;99.90;;;;;;4900495;29;20083;-77
2021/09/20 00:03:07;;;;;;;3.35;1.27;;;15.30;99.90;;;;;;4900030;29;20045;-77
2021/09/20 00:05:36;;;;;;;2.78;1.20;;;15.30;99.90;;;;;;4900603;29;20143;-78
2021/09/20 00:08:04;;;;;;;3.28;1.20;;;15.30;99.90;;;;;;4900097;29;20505;-79
2021/09/20 00:10:31;;;;;;;2.35;1.27;;;15.30;99.90;;;;;;4900026;29;20136;-76
2021/09/20 00:12:58;;;;;;;2.85;1.42;;;15.30;99.90;;;;;;4899820;29;20135;-79
2021/09/20 00:15:26;;;;;;;3.00;1.27;;;15.30;99.90;;;;;;4900015;29;20076;-77
2021/09/20 00:17:53;;;;;;;5.63;1.80;;;15.30;99.90;;;;;;4899924;29;20127;-80
2021/09/20 00:20:20;;;;;;;2.70;1.50;;;15.30;99.90;;;;;;4899775;29;20590;-77
2021/09/20 00:22:49;;;;;;;2.72;1.40;;;15.30;99.90;;;;;;4899930;29;20099;-79
2021/09/20 00:25:16;;;;;;;2.70;1.23;;;15.30;99.90;;;;;;4899695;29;20132;-79
2021/09/20 00:27:43;;;;;;;2.85;1.40;;;15.20;99.90;;;;;;4899785;29;20139;-79
2021/09/20 00:30:12;;;;;;;4.70;2.30;;;15.20;99.90;;;;;;4899754;29;20563;-77
2021/09/20 00:32:40;;;;;;;3.20;1.90;;;15.20;99.90;;;;;;4899684;29;20147;-79
2021/09/20 00:35:08;;;;;;;2.80;1.63;;;15.20;99.90;;;;;;4899437;29;20082;-79
2021/09/20 00:37:36;;;;;;;4.93;2.20;;;15.20;99.90;;;;;;4899572;29;20140;-79
2021/09/20 00:40:07;;;;;;;3.38;2.25;;;15.10;99.90;;;;;;4899757;29;20131;-79
2021/09/20 00:42:34;;;;;;;3.65;2.10;;;15.10;99.90;;;;;;4899678;29;20104;-80
2021/09/20 00:45:01;;;;;;;3.90;2.20;;;15.10;99.90;;;;;;4899445;29;20053;-79
2021/09/20 00:47:28;;;;;;;3.45;1.80;;;15.10;99.90;;;;;;4892525;29;20185;-79
2021/09/20 00:49:55;;;;;;;4.80;2.50;;;15.10;99.90;;;;;;4899337;29;20140;-79
2021/09/20 00:52:22;;;;;;;4.80;3.10;;;15.10;99.90;;;;;;4899373;29;20139;-78
2021/09/20 00:54:50;;;;;;;4.05;2.60;;;15.10;99.90;;;;;;4899293;29;20072;-79
2021/09/20 00:57:20;;;;;;;4.90;3.00;;;15.10;99.90;;;;;;4899277;29;20056;-80
2021/09/20 00:59:48;;;;;;;5.05;3.20;;;15.00;99.90;;;;;;4898778;29;20136;-79
2021/09/20 01:02:15;;;;;;;5.85;3.20;;;15.00;99.90;;;;;;4899090;29;20135;-77
2021/09/20 01:04:42;;;;;;;5.30;3.20;;;15.10;99.90;;;;;;4899483;29;20136;-78
2021/09/20 01:07:09;;;;;;;5.47;3.40;;;15.10;99.90;;;;;;4898868;29;20055;-78
2021/09/20 01:09:40;;;;;;;4.38;2.97;;;15.10;99.90;;;;;;4899344;29;20132;-78
2021/09/20 01:12:08;;;;;;;5.93;3.85;;;15.10;99.90;;;;;;4899084;29;20045;-80
2021/09/20 01:14:37;;;;;;;5.00;3.13;;;15.10;99.90;;;;;;4899149;29;20141;-80
2021/09/20 01:17:05;;;;;;;6.25;3.83;;;15.10;99.90;;;;;;4898441;29;20481;-78
2021/09/20 01:19:32;;;;;;;4.78;3.22;;;15.20;99.90;;;;;;4898888;29;20487;-79
2021/09/20 01:22:04;;;;;;;5.75;3.38;;;15.20;99.90;;;;;;4899001;29;20053;-78
2021/09/20 01:24:33;;;;;;;4.45;3.20;;;15.20;99.90;;;;;;4892483;29;20132;-78
2021/09/20 01:27:03;;;;;;;6.30;3.50;;;15.20;99.90;;;;;;4898886;29;20056;-79
2021/09/20 01:29:30;;;;;;;5.38;3.83;;;15.20;99.90;;;;;;4891908;29;20483;-80
2021/09/20 01:31:58;;;;;;;8.63;4.72;;;15.20;99.90;;;;;;4899170;29;20052;-77
2021/09/20 01:34:26;;;;;;;6.13;3.85;;;15.30;99.90;;;;;;4898583;29;20056;-75
2021/09/20 01:36:53;;;;;;;9.93;4.05;;;15.30;99.90;;;;;;4898973;29;20447;-80
2021/09/20 01:39:25;;;;;;;5.68;4.15;;;15.20;99.90;;;;;;4898428;29;20136;-79
2021/09/20 01:41:54;;;;;;;6.43;4.13;;;15.20;99.90;;;;;;4898620;29;20076;-79
2021/09/20 01:44:22;;;;;;;5.20;3.22;;;15.20;99.90;;;;;;4898267;29;20059;-79
2021/09/20 01:46:51;;;;;;;5.00;3.28;;;15.10;99.90;;;;;;4898777;29;20052;-79
2021/09/20 01:49:19;;;;;;;5.80;4.38;;;15.00;99.90;;;;;;4898563;29;20184;-81
2021/09/20 01:51:48;;;;;;;6.70;3.97;;;14.90;99.90;;;;;;4898358;29;20143;-81
2021/09/20 01:54:16;;;;;;;5.65;3.70;;;14.90;99.90;;;;;;4898084;29;20165;-80
2021/09/20 01:56:44;;;;;;;4.75;3.45;;;14.80;99.90;;;;;;4898273;29;20136;-78
2021/09/20 01:59:12;;;;;;;5.03;3.45;;;14.80;99.90;;;;;;4898110;29;20131;-79
2021/09/20 02:01:39;;;;;;;7.03;4.30;;;14.80;99.90;;;;;;4897693;29;20052;-79
2021/09/20 02:04:06;;;;;;;6.03;4.32;;;14.80;99.90;;;;;;4898078;29;20525;-80
2021/09/20 02:06:34;;;;;;;6.55;4.30;;;14.80;99.90;;;;;;4898298;29;20139;-79
2021/09/20 02:09:01;;;;;;;5.80;4.10;;;14.80;99.90;;;;;;4897781;29;20140;-77
2021/09/20 02:11:28;;;;;;;6.43;4.72;;;14.80;99.90;;;;;;4890960;29;20052;-78
2021/09/20 02:13:55;;;;;;;6.95;4.60;;;14.70;99.90;;;;;;4898396;29;20131;-80
2021/09/20 02:16:24;;;;;;;6.10;4.30;;;14.70;99.90;;;;;;4897722;29;20132;-78
2021/09/20 02:18:51;;;;;;;7.50;4.10;;;14.70;99.90;;;;;;4898261;29;20052;-78
2021/09/20 02:21:18;;;;;;;7.32;4.45;;;14.70;99.90;;;;;;4897365;29;20144;-77
2021/09/20 02:23:45;;;;;;;8.00;4.50;;;14.70;99.90;;;;;;4890978;29;20130;-77
2021/09/20 02:26:13;;;;;;;6.50;4.60;;;14.70;99.90;;;;;;4889966;29;20135;-77
2021/09/20 02:28:40;;;;;;;6.70;4.90;;;14.70;99.90;;;;;;4898902;29;20135;-80
2021/09/20 02:31:09;;;;;;;6.72;4.95;;;14.70;99.90;;;;;;4899575;29;20144;-80
2021/09/20 02:33:39;;;;;;;7.10;4.82;;;14.70;99.90;;;;;;4898530;29;20166;-79
2021/09/20 02:36:08;;;;;;;6.75;4.93;;;14.70;99.90;;;;;;4898709;29;20147;-76
2021/09/20 02:38:36;;;;;;;7.20;4.80;;;14.70;99.90;;;;;;4904827;29;20087;-78
2021/09/20 02:41:04;;;;;;;7.53;4.78;;;14.70;99.90;;;;;;4907232;29;20084;-79
2021/09/20 02:43:31;;;;;;;6.43;4.60;;;14.70;99.90;;;;;;4906807;29;20080;-78
2021/09/20 02:45:58;;;;;;;6.03;4.53;;;14.70;99.90;;;;;;4902614;29;20076;-79
2021/09/20 02:48:25;;;;;;;5.97;4.80;;;14.70;99.90;;;;;;4897502;29;20155;-80
2021/09/20 02:50:54;;;;;;;6.50;4.93;;;14.70;99.90;;;;;;4898045;29;20052;-79
2021/09/20 02:53:21;;;;;;;9.35;5.05;;;14.60;99.90;;;;;;4897800;29;20135;-78
2021/09/20 02:55:48;;;;;;;6.30;4.32;;;14.60;99.90;;;;;;4898123;29;20127;-79
2021/09/20 02:58:15;;;;;;;6.25;4.30;;;14.60;99.90;;;;;;4898005;29;20076;-78
2021/09/20 03:00:42;;;;;;;7.20;3.90;;;14.60;99.90;;;;;;4897969;29;20127;-77
2021/09/20 03:03:09;;;;;;;6.32;4.43;;;14.60;99.90;;;;;;4894742;29;20084;-80
2021/09/20 03:05:37;;;;;;;6.07;4.32;;;14.50;99.90;;;;;;4895683;29;20119;-78
2021/09/20 03:08:06;;;;;;;5.90;4.38;;;14.60;99.90;;;;;;4893716;29;20143;-78
2021/09/20 03:10:35;;;;;;;6.80;4.45;;;14.60;99.90;;;;;;4894425;29;20048;-79
2021/09/20 03:13:03;;;;;;;6.03;4.20;;;14.60;99.90;;;;;;4894477;29;20069;-80
2021/09/20 03:15:30;;;;;;;7.32;4.55;;;14.60;99.90;;;;;;4887513;29;20131;-80
2021/09/20 03:17:57;;;;;;;8.35;5.10;;;14.60;99.90;;;;;;4894249;29;20482;-77
2021/09/20 03:20:25;;;;;;;7.28;4.60;;;14.60;99.90;;;;;;4893929;29;20044;-80
2021/09/20 03:22:52;;;;;;;6.00;4.20;;;14.60;99.90;;;;;;4896033;29;20139;-80
2021/09/20 03:25:21;;;;;;;6.15;4.20;;;14.60;99.90;;;;;;4898400;29;20140;-79
2021/09/20 03:27:49;;;;;;;9.32;4.68;;;14.60;99.90;;;;;;4898259;29;20135;-77
2021/09/20 03:30:17;;;;;;;6.10;4.40;;;14.60;99.90;;;;;;4897467;29;20151;-79
2021/09/20 03:32:44;;;;;;;6.35;4.35;;;14.60;99.90;;;;;;4898081;29;20661;-80
2021/09/20 03:35:14;;;;;;;6.95;4.63;;;14.70;99.90;;;;;;4898298;29;20079;-81
2021/09/20 03:37:42;;;;;;;6.45;4.28;;;14.70;99.90;;;;;;4900457;29;20061;-80
2021/09/20 03:40:12;;;;;;;6.35;4.38;;;14.70;99.90;;;;;;4897924;29;20056;-79
2021/09/20 03:42:41;;;;;;;6.60;4.95;;;14.70;99.90;;;;;;4898621;29;20143;-78
2021/09/20 03:45:09;;;;;;;7.10;4.78;;;14.70;99.90;;;;;;4897209;29;20554;-79
2021/09/20 03:47:37;;;;;;;6.10;4.43;;;14.80;99.90;;;;;;4897954;29;20112;-80
2021/09/20 03:50:05;;;;;;;7.72;4.65;;;14.70;99.90;;;;;;4897355;29;20575;-80
2021/09/20 03:52:33;;;;;;;7.47;4.32;;;14.70;99.90;;;;;;4897688;29;20054;-79
2021/09/20 03:55:00;;;;;;;5.38;3.80;;;14.70;99.90;;;;;;4897513;29;20139;-79
2021/09/20 03:57:27;;;;;;;5.50;3.55;;;14.70;99.90;;;;;;4896848;29;20051;-79
2021/09/20 03:59:56;;;;;;;5.93;3.88;;;14.60;99.90;;;;;;4897039;29;20156;-78
2021/09/20 04:02:23;;;;;;;5.65;4.00;;;14.60;99.90;;;;;;4899705;29;20080;-78
2021/09/20 04:04:50;;;;;;;5.45;3.95;;;14.70;99.90;;;;;;4901172;29;20586;-80
2021/09/20 04:07:17;;;;;;;5.50;3.60;;;14.70;99.90;;;;;;4900313;29;20139;-79
2021/09/20 04:09:44;;;;;;;6.30;4.07;;;14.70;99.90;;;;;;4900911;29;20044;-80
2021/09/20 04:12:11;;;;;;;5.95;4.10;;;14.70;99.90;;;;;;4900005;29;20112;-79
2021/09/20 04:14:38;;;;;;;5.80;4.13;;;14.80;99.90;;;;;;4901055;29;20120;-77
2021/09/20 04:17:08;;;;;;;6.00;4.20;;;14.80;99.90;;;;;;4900139;29;20493;-78
2021/09/20 04:19:36;;;;;;;6.72;4.25;;;14.80;99.90;;;;;;4900444;29;20124;-80
2021/09/20 04:22:04;;;;;;;7.28;4.47;;;14.80;99.90;;;;;;4900263;29;20140;-78
2021/09/20 04:24:32;;;;;;;5.95;4.15;;;14.80;99.90;;;;;;4900298;29;20163;-78
2021/09/20 04:26:59;;;;;;;6.20;3.92;;;14.90;99.90;;;;;;4900089;29;20091;-80
2021/09/20 04:29:26;;;;;;;6.75;3.70;;;14.90;99.90;;;;;;4900264;29;20139;-79
2021/09/20 04:31:53;;;;;;;6.00;3.80;;;14.90;99.90;;;;;;4900284;29;20143;-77
2021/09/20 04:34:23;;;;;;;5.93;4.30;;;14.90;99.90;;;;;;4898919;29;20112;-76
2021/09/20 04:36:50;;;;;;;5.97;4.38;;;14.90;99.90;;;;;;4900377;29;20527;-76
2021/09/20 04:39:18;;;;;;;6.28;4.40;;;14.90;99.90;;;;;;4899819;29;20575;-78
2021/09/20 04:41:46;;;;;;;5.97;4.20;;;14.90;99.90;;;;;;4900087;29;20127;-77
2021/09/20 04:44:13;;;;;;;6.60;4.05;;;14.90;99.90;;;;;;4900417;29;20083;-78
2021/09/20 04:46:40;;;;;;;6.38;4.20;;;14.90;99.90;;;;;;4900789;29;20052;-78
2021/09/20 04:49:07;;;;;;;6.57;3.92;;;14.90;99.90;;;;;;4900402;29;20131;-79
2021/09/20 04:51:36;;;;;;;6.43;4.10;;;14.90;99.90;;;;;;4900341;29;20131;-79
2021/09/20 04:54:03;;;;;;;6.03;4.18;;;14.90;99.90;;;;;;4899358;29;20579;-78
2021/09/20 04:56:31;;;;;;;6.55;4.20;;;14.90;99.90;;;;;;4900064;29;20139;-80
2021/09/20 04:58:58;;;;;;;6.75;4.00;;;14.90;99.90;;;;;;4900084;29;20087;-76
2021/09/20 05:01:25;;;;;;;5.93;3.85;;;14.90;99.90;;;;;;4899750;29;20064;-77
2021/09/20 05:03:52;;;;;;;6.65;3.90;;;14.80;99.90;;;;;;4899563;29;20048;-79
2021/09/20 05:06:19;;;;;;;5.93;4.03;;;14.70;99.90;;;;;;4899691;29;20147;-78
2021/09/20 05:08:48;;;;;;;5.55;3.90;;;14.70;99.90;;;;;;4898703;29;20135;-79
2021/09/20 05:11:15;;;;;;;6.00;4.13;;;14.70;99.90;;;;;;4899292;29;20104;-79
2021/09/20 05:13:42;;;;;;;5.63;4.20;;;14.60;99.90;;;;;;4899373;29;20136;-79
2021/09/20 05:16:09;;;;;;;7.25;4.50;;;14.60;99.90;;;;;;4899040;29;20139;-76
2021/09/20 05:18:36;;;;;;;5.95;4.20;;;14.50;99.90;;;;;;4899308;29;20076;-79
2021/09/20 05:21:04;;;;;;;7.18;4.35;;;14.50;99.90;;;;;;4899067;29;20056;-79
2021/09/20 05:23:31;;;;;;;5.65;3.95;;;14.50;99.90;;;;;;4899352;29;20655;-79
2021/09/20 05:26:00;;;;;;;6.18;3.70;;;14.50;99.90;;;;;;4899474;29;20143;-76
2021/09/20 05:28:27;;;;;;;5.60;3.90;;;14.50;99.90;;;;;;4899347;29;20136;-77
2021/09/20 05:30:54;;;;;;;7.30;4.50;;;14.60;99.90;;;;;;4899264;29;20139;-78
2021/09/20 05:33:21;;;;;;;6.57;4.22;;;14.60;99.90;;;;;;4901205;29;20132;-78
2021/09/20 05:35:48;;;;;;;6.63;4.43;;;14.60;99.90;;;;;;4898737;29;20136;-80
2021/09/20 05:38:15;;;;;;;7.00;4.50;;;14.60;99.90;;;;;;4890983;29;20049;-79
2021/09/20 05:40:43;;;;;;;5.70;4.10;;;14.70;99.90;;;;;;4891277;29;20083;-77
2021/09/20 05:43:12;;;;;;;6.28;4.70;;;14.70;99.90;;;;;;4898693;29;20455;-78
2021/09/20 05:45:39;;;;;;;7.07;4.53;;;14.70;99.90;;;;;;4893109;29;20148;-78
2021/09/20 05:48:06;;;;;;;6.32;4.20;;;14.70;99.90;;;;;;4898580;29;20156;-79
2021/09/20 05:50:34;;;;;;;7.28;4.15;;;14.70;99.90;;;;;;4898783;29;20069;-80
2021/09/20 05:53:01;;;;;;;7.47;4.30;;;14.70;99.90;;;;;;4888800;29;20076;-78
2021/09/20 05:55:28;;;;;;;6.95;3.90;;;14.60;99.90;;;;;;4887159;29;20499;-79
2021/09/20 05:57:56;;;;;;;6.00;3.95;;;14.60;99.90;;;;;;4888104;29;20084;-78
2021/09/20 06:00:25;;;;;;;6.40;4.20;;;14.60;99.90;;;;;;4881602;29;20144;-79
2021/09/20 06:02:52;;;;;;;6.72;4.05;;;14.60;99.90;;;;;;4881258;29;20095;-79
2021/09/20 06:05:19;;;;;;;6.28;4.10;;;14.60;99.90;;;;;;4881717;29;20140;-79
2021/09/20 06:07:47;;;;;;;7.82;4.75;;;14.60;99.90;;;;;;4883214;29;20051;-78
2021/09/20 06:10:16;;;;;;;6.90;4.47;;;14.60;99.90;;;;;;4887049;29;20049;-78
2021/09/20 06:12:45;;;;;;;7.45;4.97;;;14.60;99.90;;;;;;4882515;29;20159;-78
2021/09/20 06:15:13;;;;;;;6.05;4.30;;;14.60;99.90;;;;;;4881453;29;20466;-77
2021/09/20 06:17:42;;;;;;;6.45;4.43;;;14.50;99.90;;;;;;4880493;29;20135;-79
2021/09/20 06:20:10;;;;;;;8.88;4.55;;;14.60;99.90;;;;;;4887016;29;20103;-78
2021/09/20 06:22:38;;;;;;;6.80;4.72;;;14.60;99.90;;;;;;4880725;29;20600;-79
2021/09/20 06:25:07;;;;;;;6.38;4.60;;;14.60;99.90;;;;;;4886919;29;20076;-79
2021/09/20 06:27:35;;;;;;;6.05;4.50;;;14.60;99.90;;;;;;4885738;29;20123;-78
2021/09/20 06:30:05;;;;;;;7.20;5.00;;;14.60;99.90;;;;;;4898079;29;20131;-76
2021/09/20 06:32:32;;;;;;;7.43;4.95;;;14.70;99.90;;;;;;4897623;29;20074;-78
2021/09/20 06:35:01;;;;;;;9.30;4.70;;;14.70;99.90;;;;;;4892822;29;20138;-78
2021/09/20 06:37:28;;;;;;;7.78;5.25;;;14.70;99.90;;;;;;4886060;29;20091;-77
2021/09/20 06:39:55;;;;;;;7.25;5.05;;;14.70;99.90;;;;;;4886496;29;20056;-79
2021/09/20 06:42:22;;;;;;;7.38;4.95;;;14.70;99.90;;;;;;4887181;29;20053;-77
2021/09/20 06:44:51;;;;;;;7.35;4.82;;;14.80;99.90;;;;;;4884618;29;20137;-75
2021/09/20 06:47:18;;;;;;;7.63;5.00;;;14.70;99.90;;;;;;4880366;29;20109;-77
2021/09/20 06:49:46;;;;;;;7.53;5.05;;;14.80;99.90;;;;;;4892074;29;20487;-79
2021/09/20 06:52:14;;;;;;;7.13;4.90;;;14.80;99.90;;;;;;4895468;29;20482;-78
2021/09/20 06:54:41;;;;;;;7.50;5.00;;;14.80;99.90;;;;;;4887939;29;20092;-80
2021/09/20 06:57:09;;;;;;;6.85;4.68;;;14.90;99.90;;;;;;4885809;29;20059;-76
2021/09/20 06:59:36;;;;;;;7.20;5.10;;;14.90;99.90;;;;;;4888992;29;20131;-79
2021/09/20 07:02:03;;;;;;;8.43;5.60;;;14.90;99.90;;;;;;4896365;29;20131;-80
2021/09/20 07:04:31;;;;;;;7.43;5.28;;;14.90;99.90;;;;;;4891943;29;20483;-79
2021/09/20 07:06:59;;;;;;;8.38;5.50;;;15.00;99.90;;;;;;4887305;29;20080;-77
2021/09/20 07:09:27;;;;;;;7.32;5.38;;;15.00;99.90;;;;;;4888267;29;20088;-78
2021/09/20 07:11:55;;;;;;;8.55;5.20;;;15.00;99.90;;;;;;4887856;29;20080;-78
2021/09/20 07:14:22;;;;;;;7.60;5.28;;;15.10;99.90;;;;;;4886783;29;20131;-80
2021/09/20 07:16:49;;;;;;;7.78;5.40;;;15.10;99.90;;;;;;4895442;29;20143;-78
2021/09/20 07:19:16;;;;;;;7.55;5.30;;;15.10;99.90;;;;;;4890523;29;21713;-80
2021/09/20 07:21:44;;;;;;;6.15;4.57;;;15.10;99.90;;;;;;4897942;29;20052;-79
2021/09/20 07:24:12;;;;;;;7.85;5.28;;;15.20;99.90;;;;;;4898040;29;20189;-76
2021/09/20 07:26:40;;;;;;;7.05;5.15;;;15.30;99.90;;;;;;4897477;29;20087;-78
2021/09/20 07:29:08;;;;;;;7.43;5.30;;;15.30;99.90;;;;;;4896878;29;20131;-77
2021/09/20 07:31:35;;;;;;;7.13;4.63;;;15.40;99.90;;;;;;4895123;29;20495;-78
2021/09/20 07:34:02;;;;;;;7.60;4.97;;;15.40;99.90;;;;;;4901247;29;20140;-78
2021/09/20 07:36:29;;;;;;;7.40;5.47;;;15.40;99.90;;;;;;4893912;29;20132;-79
2021/09/20 07:38:56;;;;;;;7.53;5.15;;;15.50;99.90;;;;;;4884714;29;20112;-78
2021/09/20 07:41:23;;;;;;;6.97;4.90;;;15.50;99.90;;;;;;4880052;29;20145;-76
2021/09/20 07:43:52;;;;;;;9.27;5.30;;;15.60;99.90;;;;;;4885335;29;20501;-77
2021/09/20 07:46:22;;;;;;;8.27;5.13;;;15.60;99.90;;;;;;4882017;29;20148;-79
2021/09/20 07:48:49;;;;;;;8.45;5.90;;;15.70;99.90;;;;;;4880745;29;20176;-78
2021/09/20 07:51:17;;;;;;;7.38;5.57;;;15.70;99.90;;;;;;4882777;29;20124;-80
2021/09/20 07:53:44;;;;;;;8.27;5.10;;;15.80;99.90;;;;;;4886353;29;20488;-79
2021/09/20 07:56:12;;;;;;;7.65;5.00;;;15.80;99.90;;;;;;4885905;29;20059;-79
2021/09/20 07:58:40;;;;;;;7.05;4.85;;;15.90;99.90;;;;;;4895879;29;20057;-78
2021/09/20 08:01:08;;;;;;;7.07;4.85;;;15.90;99.90;;;;;;4882929;29;20558;-80
2021/09/20 08:03:35;;;;;;;7.70;5.47;;;16.00;99.90;;;;;;4880224;29;20594;-80
2021/09/20 08:06:02;;;;;;;7.78;5.43;;;16.00;99.90;;;;;;4885727;29;20140;-79
2021/09/20 08:08:29;;;;;;;7.65;4.95;;;16.10;99.90;;;;;;4889438;29;20133;-76
2021/09/20 08:10:57;;;;;;;7.75;5.30;;;16.10;99.90;;;;;;4886192;29;20080;-79
2021/09/20 08:13:24;;;;;;;7.57;5.45;;;16.10;99.90;;;;;;4896276;29;20136;-79
2021/09/20 08:15:51;;;;;;;7.70;5.38;;;16.10;99.90;;;;;;4889849;29;20131;-79
2021/09/20 08:18:20;;;;;;;7.95;5.70;;;16.20;99.90;;;;;;4890021;29;20143;-79
2021/09/20 08:20:47;;;;;;;9.43;5.90;;;16.20;99.90;;;;;;4886200;29;20132;-74
2021/09/20 08:23:15;;;;;;;8.35;5.43;;;16.20;99.90;;;;;;4891662;29;20045;-78
2021/09/20 08:25:44;;;;;;;8.80;5.88;;;16.10;99.90;;;;;;4899709;29;20148;-79
2021/09/20 08:28:11;;;;;;;9.07;6.32;;;16.20;99.90;;;;;;4899944;29;20049;-80
2021/09/20 08:30:38;;;;;;;8.57;5.93;;;16.20;99.90;;;;;;4899610;29;20132;-80
2021/09/20 08:33:06;;;;;;;8.57;5.90;;;16.20;99.90;;;;;;4899253;29;20087;-80
2021/09/20 08:35:35;;;;;;;8.68;5.63;;;16.20;99.90;;;;;;4899652;29;20535;-79
2021/09/20 08:38:02;;;;;;;8.77;5.80;;;16.30;99.90;;;;;;4899497;29;20084;-80
2021/09/20 08:40:31;;;;;;;9.43;6.15;;;16.30;99.90;;;;;;4899574;29;20124;-78
2021/09/20 08:42:59;;;;;;;7.68;5.55;;;16.30;99.90;;;;;;4899644;29;20494;-80
2021/09/20 08:45:28;;;;;;;7.60;5.28;;;16.30;99.90;;;;;;4895059;29;20140;-79
2021/09/20 08:47:57;;;;;;;7.68;5.10;;;16.40;99.90;;;;;;4893186;29;20128;-80
2021/09/20 08:50:28;;;;;;;7.32;4.82;;;16.40;99.90;;;;;;4892059;29;20055;-80
2021/09/20 08:52:57;;;;;;;6.20;4.38;;;16.50;99.90;;;;;;4899607;29;20143;-79
2021/09/20 08:55:25;;;;;;;7.65;5.15;;;16.60;99.90;;;;;;4899261;29;20131;-80
2021/09/20 08:57:52;;;;;;;7.55;5.20;;;16.60;99.90;;;;;;4897097;29;20131;-80
2021/09/20 09:00:20;;;;;;;7.28;5.03;;;16.70;99.90;;;;;;4896446;29;20059;-80
2021/09/20 09:02:47;;;;;;;7.03;4.53;;;16.80;99.90;;;;;;4901687;29;20080;-78
2021/09/20 09:05:22;;;;;;;7.25;5.40;;;16.80;99.90;;;;;;4890155;29;20045;-76
2021/09/20 09:07:52;;;;;;;7.07;4.90;;;16.90;99.90;;;;;;4891178;29;20411;-77
2021/09/20 09:10:23;;;;;;;6.07;4.28;;;16.90;99.90;;;;;;4887960;29;21612;-78
2021/09/20 09:12:52;;;;;;;7.88;5.10;;;17.00;99.90;;;;;;4881852;29;20136;-77
2021/09/20 09:15:22;;;;;;;7.22;4.72;;;17.00;99.90;;;;;;4882914;29;21460;-75
2021/09/20 09:17:53;;;;;;;6.53;4.53;;;17.00;99.90;;;;;;4884999;29;20067;-78
2021/09/20 09:20:23;;;;;;;7.53;5.57;;;17.10;99.90;;;;;;4890044;29;20067;-76
2021/09/20 09:22:54;;;;;;;7.30;5.03;;;17.10;99.90;;;;;;4891403;29;20094;-77
2021/09/20 09:25:27;;;;;;;7.43;5.20;;;17.10;99.90;;;;;;4899373;29;20128;-76
2021/09/20 09:27:59;;;;;;;7.13;4.90;;;17.10;99.90;;;;;;4900870;29;20165;-78
2021/09/20 09:30:29;;;;;;;7.47;5.30;;;17.20;99.90;;;;;;4901723;29;20053;-74
2021/09/20 09:33:09;;;;;;;7.50;5.40;;;17.10;99.90;;;;;;4898845;29;20049;-78
2021/09/20 09:35:38;;;;;;;7.20;5.40;;;17.10;99.90;;;;;;4892985;29;20040;-79
2021/09/20 09:38:09;;;;;;;7.32;5.15;;;17.20;99.90;;;;;;4897499;29;20135;-78
2021/09/20 09:40:50;;;;;;;7.25;5.15;;;17.20;99.90;;;;;;4898870;29;20091;-78
2021/09/20 09:43:27;;;;;;;8.48;5.53;;;17.20;99.90;;;;;;4898751;29;20059;-78
2021/09/20 09:45:55;;;;;;;6.75;4.68;;;17.30;99.80;;;;;;4898573;29;20044;-76
2021/09/20 09:48:25;;;;;;;7.63;5.70;;;17.30;99.70;;;;;;4898190;29;20217;-77
2021/09/20 09:50:56;;;;;;;8.07;5.57;;;17.30;99.20;;;;;;4898636;29;20076;-78
2021/09/20 09:53:35;;;;;;;7.28;4.90;;;17.30;99.30;;;;;;4897922;29;20087;-78
2021/09/20 09:56:21;;;;;;;6.85;4.75;;;17.30;99.50;;;;;;4898441;29;20131;-78
2021/09/20 09:58:57;;;;;;;7.53;5.32;;;17.30;99.90;;;;;;4893789;29;20112;-78
2021/09/20 10:01:30;;;;;;;8.02;5.15;;;17.30;99.60;;;;;;4897749;29;20417;-76
2021/09/20 10:04:10;;;;;;;6.15;4.45;;;17.40;99.30;;;;;;4898236;29;20107;-76
2021/09/20 10:06:58;;;;;;;7.30;4.82;;;17.40;99.60;;;;;;4891973;29;20045;-77
2021/09/20 10:09:28;;;;;;;9.00;5.18;;;17.40;99.50;;;;;;4895137;29;20475;-76
2021/09/20 10:11:59;;;;;;;6.47;4.80;;;17.40;99.40;;;;;;4897474;29;20889;-77
2021/09/20 10:14:28;;;;;;;7.07;4.53;;;17.40;99.50;;;;;;4893610;29;20148;-78
2021/09/20 10:16:59;;;;;;;8.73;5.30;;;17.40;99.70;;;;;;4889377;29;20096;-79
2021/09/20 10:19:26;;;;;;;8.70;5.80;;;17.40;99.60;;;;;;4890304;29;20045;-76
2021/09/20 10:21:54;;;;;;;8.38;5.70;;;17.40;99.60;;;;;;4884167;29;20140;-76
2021/09/20 10:24:21;;;;;;;10.55;5.63;;;17.40;99.60;;;;;;4894305;29;20091;-77
2021/09/20 10:26:49;;;;;;;8.13;5.35;;;17.40;99.50;;;;;;4894473;29;20132;-76
2021/09/20 10:29:19;;;;;;;7.75;5.55;;;17.50;99.60;;;;;;4894010;29;20052;-78
2021/09/20 10:31:49;;;;;;;7.32;4.90;;;17.50;99.20;;;;;;4894062;29;20139;-79
2021/09/20 10:34:32;;;;;;;6.53;4.68;;;17.50;99.20;;;;;;4892624;29;20057;-78
2021/09/20 10:37:04;;;;;;;8.40;5.10;;;17.50;99.60;;;;;;4894104;29;20056;-76
2021/09/20 10:39:56;;;;;;;6.20;4.10;;;17.50;99.70;;;;;;4887033;29;20088;-77
2021/09/20 10:43:00;;;;;;;7.45;5.22;;;17.50;99.70;;;;;;4891776;29;20139;-76
2021/09/20 10:45:49;;;;;;;;;;;17.60;99.50;;;;;;4894911;29;20128;-78
2021/09/20 10:48:50;;;;;;;7.15;5.00;;;17.60;99.20;;;;;;4894695;29;20006;-77
2021/09/20 10:51:31;;;;;;;6.13;4.25;;;17.70;99.10;;;;;;4892015;29;20087;-79
2021/09/20 10:54:23;;;;;;;6.47;4.70;;;17.80;99.10;;;;;;4893805;29;20136;-78
2021/09/20 10:56:55;;;;;;;6.18;4.20;;;17.80;98.90;;;;;;4891494;29;20120;-79
2021/09/20 10:59:30;;;;;;;5.88;3.95;;;17.80;99.00;;;;;;4896730;29;20136;-77
2021/09/20 11:02:18;;;;;;;7.00;4.80;;;17.80;98.60;;;;;;4895944;29;20078;-79
2021/09/20 11:04:46;;;;;;;5.85;4.18;;;17.80;98.80;;;;;;4897271;29;20080;-79
2021/09/20 11:07:21;;;;;;;6.57;4.50;;;17.90;98.90;;;;;;4897328;29;20623;-78
2021/09/20 11:09:51;;;;;;;;;;;18.00;98.70;;;;;;4898125;29;20092;-78
2021/09/20 11:12:21;;;;;;;8.23;4.32;;;18.00;98.50;;;;;;4897760;29;20022;-80
2021/09/20 11:15:07;;;;;;;7.47;5.07;;;18.00;98.40;;;;;;4897690;29;20062;-79
2021/09/20 11:17:50;;;;;;;6.43;4.55;;;18.00;98.30;;;;;;4896554;29;20100;-79
2021/09/20 11:20:36;;;;;;;6.75;5.00;;;18.10;98.20;;;;;;4898281;29;20132;-77
2021/09/20 11:23:36;;;;;;;6.28;4.20;;;18.10;98.00;;;;;;4897459;29;20052;-80
2021/09/20 11:26:14;;;;;;;6.70;3.92;;;18.10;98.10;;;;;;4897880;29;20052;-79
2021/09/20 11:28:47;;;;;;;6.72;4.70;;;18.20;98.20;;;;;;4897854;29;20493;-80
2021/09/20 11:31:14;;;;;;;7.72;4.90;;;18.20;98.10;;;;;;4897539;29;20055;-79
2021/09/20 11:33:45;;;;;;;5.43;3.80;;;18.30;97.80;;;;;;4897521;29;20136;-79
2021/09/20 11:36:21;;;;;;;5.93;3.70;;;18.30;97.90;;;;;;4897576;29;20060;-79
2021/09/20 11:38:49;;;;;;;5.85;4.60;;;18.30;97.90;;;;;;4897541;29;20140;-80
2021/09/20 11:41:21;;;;;;;6.97;4.93;;;18.30;97.80;;;;;;4897546;29;20131;-80
2021/09/20 11:43:49;;;;;;;7.15;4.90;;;18.40;97.70;;;;;;4898181;29;20494;-80
2021/09/20 11:46:21;;;;;;;6.45;4.53;;;18.40;97.30;;;;;;4901006;29;20144;-80
2021/09/20 11:49:01;;;;;;;5.18;3.78;;;18.40;97.10;;;;;;4901159;29;20135;-79
2021/09/20 11:51:29;;;;;;;6.30;4.05;;;18.40;97.00;;;;;;4901327;29;20131;-80
2021/09/20 11:53:56;;;;;;;6.32;4.13;;;18.50;97.10;;;;;;4900936;29;20139;-78
2021/09/20 11:56:27;;;;;;;6.25;4.30;;;18.60;97.10;;;;;;4901034;29;20055;-78
2021/09/20 11:58:56;;;;;;;7.82;5.05;;;18.60;97.10;;;;;;4901052;29;20124;-76
2021/09/20 12:01:26;;;;;;;7.68;5.40;;;18.70;96.90;;;;;;4901113;29;20091;-78
2021/09/20 12:03:56;;;;;;;7.50;4.60;;;18.70;96.20;;;;;;4900710;29;20475;-79
2021/09/20 12:06:33;;;;;;;6.20;4.32;;;18.80;95.80;;;;;;4900894;29;20505;-80
2021/09/20 12:09:03;;;;;;;7.30;3.85;;;18.70;95.90;;;;;;4900710;29;20131;-77
2021/09/20 12:11:31;;;;;;;6.07;4.38;;;18.60;96.20;;;;;;4901107;29;20081;-80
2021/09/20 12:13:58;;;;;;;8.15;5.68;;;18.60;96.30;;;;;;4900545;29;20574;-76
2021/09/20 12:16:27;;;;;;;6.68;4.70;;;18.60;96.00;;;;;;4900235;29;20409;-80
2021/09/20 12:18:58;;;;;;;6.55;4.40;;;18.60;96.20;;;;;;4900680;29;20139;-79
2021/09/20 12:21:28;;;;;;;6.70;4.50;;;18.60;96.40;;;;;;4900362;29;20056;-79
2021/09/20 12:23:55;;;;;;;7.32;4.25;;;18.60;96.10;;;;;;4900682;29;20049;-78
2021/09/20 12:26:25;;;;;;;6.32;4.35;;;18.60;96.00;;;;;;4900257;29;20065;-80
2021/09/20 12:28:55;;;;;;;6.00;4.00;;;18.50;96.00;;;;;;4900359;29;20096;-78
2021/09/20 12:31:26;;;;;;;8.88;4.53;;;18.50;96.30;;;;;;4901761;29;20084;-77
2021/09/20 12:34:03;;;;;;;7.53;4.75;;;18.50;96.60;;;;;;4900081;29;20509;-79
2021/09/20 12:36:34;;;;;;;6.82;4.78;;;18.50;96.60;;;;;;4900413;29;20044;-80
2021/09/20 12:39:11;;;;;;;6.57;4.80;;;18.40;96.60;;;;;;4900386;29;20087;-78
2021/09/20 12:41:41;;;;;;;6.55;4.03;;;18.50;96.50;;;;;;4899970;29;20495;-80
2021/09/20 12:44:10;;;;;;;6.15;4.18;;;18.40;96.50;;;;;;4904352;29;20108;-80
2021/09/20 12:46:39;;;;;;;6.38;4.63;;;18.40;96.80;;;;;;4909873;29;20076;-80
2021/09/20 12:49:10;;;;;;;6.88;4.78;;;18.40;96.60;;;;;;4899925;29;20487;-80
2021/09/20 12:51:40;;;;;;;6.63;4.65;;;18.40;96.60;;;;;;4902440;29;20144;-78
2021/09/20 12:54:23;;;;;;;6.72;4.63;;;18.30;96.50;;;;;;4900381;29;20139;-79
2021/09/20 12:56:51;;;;;;;6.10;4.22;;;18.40;96.50;;;;;;4899099;29;20127;-79
2021/09/20 12:59:29;;;;;;;8.52;5.72;;;18.30;96.60;;;;;;4900313;29;20411;-78